Time;durP1;ratioP1;P1;durP2;ratioP2;P2;SDS_P1;SDS_P2;PMS_P1;PMS_P2;Temp;Humidity;BMP_temperature;BMP_pressure;BME280_temperature;BME280_humidity;BME280_pressure;Samples;Min_cycle;Max_cycle;Signal;HPM_P1;HPM_P2
2023/03/19 00:00:55;;;;;;;;;;;;;;;5.05;64.12;100424.50;5006241;28;4865;-86
2023/03/19 00:03:22;;;;;;;;;;;;;;;5.01;64.06;100424.03;5015796;28;4928;-88
2023/03/19 00:05:49;;;;;;;;;;;;;;;5.04;64.27;100428.19;5005880;28;4233;-88
2023/03/19 00:08:16;;;;;;;;;;;;;;;5.01;64.20;100432.06;5013299;28;3862;-86
2023/03/19 00:10:42;;;;;;;;;;;;;;;4.98;64.40;100424.41;5016623;28;4846;-87
2023/03/19 00:13:09;;;;;;;;;;;;;;;4.99;64.03;100431.41;5020842;28;4909;-87
2023/03/19 00:15:36;;;;;;;;;;;;;;;4.97;64.13;100430.78;5018169;28;4577;-86
2023/03/19 00:18:04;;;;;;;;;;;;;;;4.97;64.21;100436.13;5003014;28;4767;-87
2023/03/19 00:20:31;;;;;;;;;;;;;;;4.96;64.12;100426.44;5014014;28;4715;-87
2023/03/19 00:22:58;;;;;;;;;;;;;;;4.95;64.13;100424.78;5018265;28;4002;-87
2023/03/19 00:25:25;;;;;;;;;;;;;;;4.94;64.51;100423.16;5002098;28;4901;-85
2023/03/19 00:27:53;;;;;;;;;;;;;;;4.94;64.26;100425.81;5002608;28;4878;-86
2023/03/19 00:30:20;;;;;;;;;;;;;;;4.94;64.15;100422.28;5018382;28;4881;-88
2023/03/19 00:32:47;;;;;;;;;;;;;;;4.94;64.24;100427.63;5017142;28;4745;-88
2023/03/19 00:35:13;;;;;;;;;;;;;;;4.93;64.17;100428.66;5024956;28;4784;-86
2023/03/19 00:37:40;;;;;;;;;;;;;;;4.92;64.09;100435.84;5006517;28;4858;-88
2023/03/19 00:40:07;;;;;;;;;;;;;;;4.91;64.20;100431.53;4999580;28;4768;-86
2023/03/19 00:42:34;;;;;;;;;;;;;;;4.92;64.36;100441.19;5008782;28;4817;-87
2023/03/19 00:45:00;;;;;;;;;;;;;;;4.90;64.29;100424.50;5018199;28;4986;-88
2023/03/19 00:47:27;;;;;;;;;;;;;;;4.90;64.19;100426.34;5021844;28;4891;-87
2023/03/19 00:49:54;;;;;;;;;;;;;;;4.89;64.40;100430.88;5024226;28;4950;-87
2023/03/19 00:52:21;;;;;;;;;;;;;;;4.89;64.21;100432.72;5005636;28;4981;-87
2023/03/19 00:54:47;;;;;;;;;;;;;;;4.89;64.14;100432.72;5007306;28;4806;-87
2023/03/19 00:57:14;;;;;;;;;;;;;;;4.88;64.09;100428.38;4999789;28;3939;-87
2023/03/19 00:59:41;;;;;;;;;;;;;;;4.87;64.05;100427.56;5020903;28;4890;-87
2023/03/19 01:02:07;;;;;;;;;;;;;;;4.87;64.21;100421.41;5006477;28;4910;-87
2023/03/19 01:04:34;;;;;;;;;;;;;;;4.86;64.27;100427.75;5004802;28;3947;-87
2023/03/19 01:07:00;;;;;;;;;;;;;;;4.85;64.10;100423.41;5021499;28;4614;-86
2023/03/19 01:09:27;;;;;;;;;;;;;;;4.85;63.96;100421.56;5004852;28;4863;-87
2023/03/19 01:11:54;;;;;;;;;;;;;;;4.85;64.06;100421.56;5022848;28;4645;-86
2023/03/19 01:14:20;;;;;;;;;;;;;;;4.84;64.12;100416.44;5016533;28;4468;-87
2023/03/19 01:16:47;;;;;;;;;;;;;;;4.84;63.90;100414.59;5001997;28;4813;-86
2023/03/19 01:19:15;;;;;;;;;;;;;;;4.83;63.80;100409.44;5006214;28;4532;-86
2023/03/19 01:21:45;;;;;;;;;;;;;;;4.83;63.86;100414.78;5018654;28;4829;-87
2023/03/19 01:24:11;;;;;;;;;;;;;;;4.83;63.93;100417.44;5003868;28;4870;-86
2023/03/19 01:26:38;;;;;;;;;;;;;;;4.83;64.12;100412.94;5003399;28;4516;-87
2023/03/19 01:29:04;;;;;;;;;;;;;;;4.81;64.21;100406.94;5019667;28;4914;-86
2023/03/19 01:31:31;;;;;;;;;;;;;;;4.81;64.13;100403.47;5020805;28;3951;-87
2023/03/19 01:33:58;;;;;;;;;;;;;;;4.81;64.16;100404.28;5005878;28;4222;-87
2023/03/19 01:36:24;;;;;;;;;;;;;;;4.79;63.99;100403.63;4998981;28;4455;-87
2023/03/19 01:38:51;;;;;;;;;;;;;;;4.80;63.99;100401.81;5019564;28;4332;-87
2023/03/19 01:41:18;;;;;;;;;;;;;;;4.78;63.98;100408.16;5020002;28;4844;-86
2023/03/19 01:43:45;;;;;;;;;;;;;;;4.78;63.94;100399.31;5018318;28;4840;-85
2023/03/19 01:46:11;;;;;;;;;;;;;;;4.78;64.01;100410.81;5017528;28;4699;-86
2023/03/19 01:48:38;;;;;;;;;;;;;;;4.77;64.18;100400.34;5021096;28;4779;-87
2023/03/19 01:51:06;;;;;;;;;;;;;;;4.76;63.95;100396.84;5017366;28;3959;-86
2023/03/19 01:53:32;;;;;;;;;;;;;;;4.77;63.88;100395.00;5023754;28;3791;-87
2023/03/19 01:55:59;;;;;;;;;;;;;;;4.76;63.94;100407.53;5003377;28;4855;-86
2023/03/19 01:58:25;;;;;;;;;;;;;;;4.76;63.99;100409.34;5015530;28;4899;-87
2023/03/19 02:00:52;;;;;;;;;;;;;;;4.76;63.99;100415.53;5018468;28;4479;-87
2023/03/19 02:03:19;;;;;;;;;;;;;;;4.74;63.77;100414.88;5019768;28;4871;-87
2023/03/19 02:05:45;;;;;;;;;;;;;;;4.74;63.78;100432.72;5005088;28;4518;-87
2023/03/19 02:08:12;;;;;;;;;;;;;;;4.73;64.05;100431.88;5022289;28;4897;-86
2023/03/19 02:10:38;;;;;;;;;;;;;;;4.71;63.88;100439.25;5024974;28;4771;-85
2023/03/19 02:13:05;;;;;;;;;;;;;;;4.72;63.98;100445.41;5016377;28;5174;-87
2023/03/19 02:15:32;;;;;;;;;;;;;;;4.70;63.94;100434.91;5009933;28;4712;-86
2023/03/19 02:17:58;;;;;;;;;;;;;;;4.70;64.11;100431.41;5018533;28;5037;-86
2023/03/19 02:20:25;;;;;;;;;;;;;;;4.71;63.94;100436.59;5018377;28;5078;-86
2023/03/19 02:22:52;;;;;;;;;;;;;;;4.70;63.86;100434.91;5018411;28;4883;-85
2023/03/19 02:25:19;;;;;;;;;;;;;;;4.70;63.92;100444.75;5014295;28;3517;-86
2023/03/19 02:27:45;;;;;;;;;;;;;;;4.68;63.93;100446.81;5015619;28;4816;-87
2023/03/19 02:30:12;;;;;;;;;;;;;;;4.69;63.73;100448.44;5017304;28;4594;-86
2023/03/19 02:32:39;;;;;;;;;;;;;;;4.66;63.79;100444.31;5015603;28;4843;-87
2023/03/19 02:35:06;;;;;;;;;;;;;;;4.67;64.17;100443.28;5022261;28;4851;-86
2023/03/19 02:37:32;;;;;;;;;;;;;;;4.66;63.81;100440.81;5022838;28;4665;-87
2023/03/19 02:39:59;;;;;;;;;;;;;;;4.65;63.82;100433.84;5021968;28;5052;-87
2023/03/19 02:42:25;;;;;;;;;;;;;;;4.65;63.90;100437.31;5024400;28;4554;-86
2023/03/19 02:44:52;;;;;;;;;;;;;;;4.65;63.76;100434.66;5006086;28;4642;-87
2023/03/19 02:47:19;;;;;;;;;;;;;;;4.64;63.79;100432.97;5011884;28;4558;-86
2023/03/19 02:49:46;;;;;;;;;;;;;;;4.64;63.80;100434.81;5011431;28;4952;-86
2023/03/19 02:52:12;;;;;;;;;;;;;;;4.62;63.86;100440.38;5018691;28;4850;-86
2023/03/19 02:54:39;;;;;;;;;;;;;;;4.63;63.90;100443.84;5017772;28;4763;-86
2023/03/19 02:57:06;;;;;;;;;;;;;;;4.63;63.81;100443.84;5018438;28;4408;-87
2023/03/19 02:59:32;;;;;;;;;;;;;;;4.61;63.63;100441.34;5017320;28;4859;-86
2023/03/19 03:01:59;;;;;;;;;;;;;;;4.61;63.84;100441.34;5015882;28;3989;-88
2023/03/19 03:04:26;;;;;;;;;;;;;;;4.61;63.77;100436.03;5015066;28;4083;-87
2023/03/19 03:06:53;;;;;;;;;;;;;;;4.61;63.84;100437.88;5019260;28;4852;-87
2023/03/19 03:09:21;;;;;;;;;;;;;;;4.60;64.12;100438.88;5020174;28;4823;-86
2023/03/19 03:11:47;;;;;;;;;;;;;;;4.60;63.93;100441.56;5016922;28;4736;-86
2023/03/19 03:14:14;;;;;;;;;;;;;;;4.59;64.21;100437.22;5017442;28;4930;-87
2023/03/19 03:16:40;;;;;;;;;;;;;;;4.58;64.04;100435.56;5004561;28;4842;-87
2023/03/19 03:19:07;;;;;;;;;;;;;;;4.57;63.92;100426.75;5016886;28;4588;-86
2023/03/19 03:21:34;;;;;;;;;;;;;;;4.56;64.20;100430.44;5018171;28;4612;-86
2023/03/19 03:24:00;;;;;;;;;;;;;;;4.55;63.85;100432.25;5023979;28;5319;-87
2023/03/19 03:26:27;;;;;;;;;;;;;;;4.54;63.92;100441.28;5002793;28;4717;-86
2023/03/19 03:28:53;;;;;;;;;;;;;;;4.54;64.00;100435.94;5000790;28;4598;-87
2023/03/19 03:31:20;;;;;;;;;;;;;;;4.54;64.02;100453.78;5003832;28;4605;-86
2023/03/19 03:33:47;;;;;;;;;;;;;;;4.55;63.95;100448.25;5005209;28;4625;-86
2023/03/19 03:36:14;;;;;;;;;;;;;;;4.53;63.93;100439.63;5018350;28;3176;-87
2023/03/19 03:38:41;;;;;;;;;;;;;;;4.52;63.95;100442.47;5014030;28;4503;-86
2023/03/19 03:41:07;;;;;;;;;;;;;;;4.53;63.89;100450.28;5013632;28;4914;-85
2023/03/19 03:43:34;;;;;;;;;;;;;;;4.51;63.87;100452.31;5014383;28;4536;-87
2023/03/19 03:46:01;;;;;;;;;;;;;;;4.51;63.79;100446.16;5014243;28;3223;-86
2023/03/19 03:48:28;;;;;;;;;;;;;;;4.51;63.92;100436.31;5014280;28;4553;-86
2023/03/19 03:50:55;;;;;;;;;;;;;;;4.51;63.81;100435.47;4996939;28;4784;-86
2023/03/19 03:53:21;;;;;;;;;;;;;;;4.51;63.83;100430.13;5000601;28;4511;-87
2023/03/19 03:55:48;;;;;;;;;;;;;;;4.49;64.09;100426.81;5012337;28;4550;-87
2023/03/19 03:58:15;;;;;;;;;;;;;;;4.50;63.88;100433.81;4987139;28;3816;-86
2023/03/19 04:00:42;;;;;;;;;;;;;;;4.49;63.89;100426.81;4994731;28;4507;-88
2023/03/19 04:03:09;;;;;;;;;;;;;;;4.48;63.84;100425.19;4993657;28;4707;-86
2023/03/19 04:05:36;;;;;;;;;;;;;;;4.48;63.85;100428.66;4981807;28;4851;-86
2023/03/19 04:08:03;;;;;;;;;;;;;;;4.48;63.84;100428.66;4996816;28;4948;-85
2023/03/19 04:10:31;;;;;;;;;;;;;;;4.48;64.06;100419.84;4975467;28;4730;-86
2023/03/19 04:13:00;;;;;;;;;;;;;;;4.48;64.07;100417.19;4979359;28;4911;-86
2023/03/19 04:15:26;;;;;;;;;;;;;;;4.48;63.87;100417.19;4981007;28;5010;-86
2023/03/19 04:17:53;;;;;;;;;;;;;;;4.48;63.95;100417.19;4984565;28;4619;-86
2023/03/19 04:20:21;;;;;;;;;;;;;;;4.48;63.64;100415.31;4990375;28;4838;-86
2023/03/19 04:22:48;;;;;;;;;;;;;;;4.48;63.56;100409.16;4998375;28;4210;-86
2023/03/19 04:25:14;;;;;;;;;;;;;;;4.49;63.56;100422.31;4996320;28;4858;-87
2023/03/19 04:27:41;;;;;;;;;;;;;;;4.49;63.61;100421.47;4994848;28;4794;-87
2023/03/19 04:30:08;;;;;;;;;;;;;;;4.48;63.57;100420.66;4979966;28;4976;-86
2023/03/19 04:32:35;;;;;;;;;;;;;;;4.48;63.62;100420.66;4981683;28;4795;-86
2023/03/19 04:35:03;;;;;;;;;;;;;;;4.49;63.53;100410.81;4984162;28;3723;-85
2023/03/19 04:37:29;;;;;;;;;;;;;;;4.50;63.55;100413.31;4995175;28;4601;-86
2023/03/19 04:39:56;;;;;;;;;;;;;;;4.50;63.88;100410.66;4995032;28;4614;-86
2023/03/19 04:42:23;;;;;;;;;;;;;;;4.51;63.30;100422.16;4977380;28;4805;-87
2023/03/19 04:44:51;;;;;;;;;;;;;;;4.51;63.50;100417.63;4980250;28;4538;-85
2023/03/19 04:47:18;;;;;;;;;;;;;;;4.51;63.34;100417.63;4995048;28;4962;-86
2023/03/19 04:49:45;;;;;;;;;;;;;;;4.52;63.50;100419.28;4978447;28;4884;-86
2023/03/19 04:52:12;;;;;;;;;;;;;;;4.53;63.32;100410.28;4995448;28;4890;-86
2023/03/19 04:54:39;;;;;;;;;;;;;;;4.53;63.53;100420.94;4978295;28;4869;-86
2023/03/19 04:57:06;;;;;;;;;;;;;;;4.54;63.19;100419.09;4997497;28;4062;-86
2023/03/19 04:59:32;;;;;;;;;;;;;;;4.56;63.45;100425.09;5011422;28;5007;-86
2023/03/19 05:02:00;;;;;;;;;;;;;;;4.57;63.54;100421.41;5002550;28;5253;-86
2023/03/19 05:04:26;;;;;;;;;;;;;;;4.62;63.30;100419.03;4999472;28;4759;-86
2023/03/19 05:06:53;;;;;;;;;;;;;;;4.62;62.98;100415.50;5013927;28;4787;-87
2023/03/19 05:09:20;;;;;;;;;;;;;;;4.59;63.49;100415.88;5001474;28;3815;-87
2023/03/19 05:11:47;;;;;;;;;;;;;;;4.65;62.92;100421.31;5002314;28;3398;-86
2023/03/19 05:14:13;;;;;;;;;;;;;;;4.66;62.97;100422.97;5010175;28;4523;-87
2023/03/19 05:16:40;;;;;;;;;;;;;;;4.65;62.99;100432.00;4993476;28;4749;-86
2023/03/19 05:19:07;;;;;;;;;;;;;;;4.69;62.82;100432.44;5013635;28;4886;-87
2023/03/19 05:21:33;;;;;;;;;;;;;;;4.71;63.01;100428.59;5010064;28;4554;-86
2023/03/19 05:24:00;;;;;;;;;;;;;;;4.71;62.72;100428.59;5010288;28;4859;-86
2023/03/19 05:26:26;;;;;;;;;;;;;;;4.75;62.73;100426.38;5004073;28;5082;-86
2023/03/19 05:28:53;;;;;;;;;;;;;;;4.78;62.36;100426.00;4990872;28;4772;-85
2023/03/19 05:31:20;;;;;;;;;;;;;;;4.77;62.66;100435.03;4991938;28;4732;-86
2023/03/19 05:33:47;;;;;;;;;;;;;;;4.76;62.53;100431.53;5009335;28;4809;-86
2023/03/19 05:36:13;;;;;;;;;;;;;;;4.81;62.42;100430.13;4994462;28;4906;-87
2023/03/19 05:38:40;;;;;;;;;;;;;;;4.87;62.10;100426.72;5005594;28;4779;-87
2023/03/19 05:41:06;;;;;;;;;;;;;;;4.79;62.38;100430.31;5009527;28;4719;-86
2023/03/19 05:43:33;;;;;;;;;;;;;;;4.87;62.18;100427.56;4995555;28;5030;-86
2023/03/19 05:46:00;;;;;;;;;;;;;;;4.90;62.00;100424.50;5008756;28;4827;-87
2023/03/19 05:48:27;;;;;;;;;;;;;;;4.88;62.15;100429.22;5010568;28;4704;-87
2023/03/19 05:50:53;;;;;;;;;;;;;;;4.90;62.04;100434.38;4993632;28;4628;-87
2023/03/19 05:53:20;;;;;;;;;;;;;;;4.80;62.66;100437.31;5006606;28;4879;-86
2023/03/19 05:55:47;;;;;;;;;;;;;;;4.93;62.01;100437.47;5011288;28;4770;-86
2023/03/19 05:58:13;;;;;;;;;;;;;;;4.88;62.27;100441.72;5008301;28;4653;-86
2023/03/19 06:00:41;;;;;;;;;;;;;;;4.93;62.17;100436.66;5004212;28;4705;-86
2023/03/19 06:03:07;;;;;;;;;;;;;;;4.89;62.12;100443.41;5008638;28;4695;-86
2023/03/19 06:05:34;;;;;;;;;;;;;;;4.98;61.77;100447.63;4990479;28;4588;-86
2023/03/19 06:08:00;;;;;;;;;;;;;;;5.04;61.60;100446.06;5010775;28;4665;-86
2023/03/19 06:10:27;;;;;;;;;;;;;;;4.99;61.79;100450.09;5009153;28;4829;-87
2023/03/19 06:12:53;;;;;;;;;;;;;;;5.12;61.34;100457.44;5008005;28;4608;-87
2023/03/19 06:15:20;;;;;;;;;;;;;;;5.13;61.37;100463.63;5007002;28;4874;-86
2023/03/19 06:17:46;;;;;;;;;;;;;;;5.09;61.29;100468.50;4992168;28;4745;-86
2023/03/19 06:20:13;;;;;;;;;;;;;;;5.09;61.52;100473.84;5007894;28;4941;-85
2023/03/19 06:22:40;;;;;;;;;;;;;;;5.13;61.14;100476.97;4995234;28;4958;-88
2023/03/19 06:25:07;;;;;;;;;;;;;;;5.10;61.32;100488.84;5006628;28;4177;-88
2023/03/19 06:27:34;;;;;;;;;;;;;;;5.16;61.20;100481.94;5007333;28;4884;-87
2023/03/19 06:30:00;;;;;;;;;;;;;;;5.09;61.27;100483.66;5007049;28;4942;-87
2023/03/19 06:32:26;;;;;;;;;;;;;;;5.09;61.24;100487.19;5004463;28;4923;-85
2023/03/19 06:34:54;;;;;;;;;;;;;;;5.22;60.91;100481.19;5002612;28;4695;-87
2023/03/19 06:37:20;;;;;;;;;;;;;;;5.19;60.93;100479.72;5016200;28;4515;-86
2023/03/19 06:39:48;;;;;;;;;;;;;;;5.17;61.08;100486.25;5010758;28;4742;-87
2023/03/19 06:42:14;;;;;;;;;;;;;;;5.18;61.11;100479.91;5013876;28;4806;-86
2023/03/19 06:44:41;;;;;;;;;;;;;;;5.27;60.80;100473.44;5005774;28;3765;-86
2023/03/19 06:47:08;;;;;;;;;;;;;;;5.25;60.74;100464.78;5016414;28;4499;-86
2023/03/19 06:49:35;;;;;;;;;;;;;;;5.23;60.96;100454.31;5015288;28;4700;-86
2023/03/19 06:52:01;;;;;;;;;;;;;;;5.28;60.80;100452.91;5015574;28;5217;-86
2023/03/19 06:54:28;;;;;;;;;;;;;;;5.26;60.86;100447.75;5011826;28;5229;-88
2023/03/19 06:56:54;;;;;;;;;;;;;;;5.25;60.94;100446.09;5017384;28;5004;-88
2023/03/19 06:59:21;;;;;;;;;;;;;;;5.31;60.72;100450.69;5018135;28;4977;-88
2023/03/19 07:01:48;;;;;;;;;;;;;;;5.27;60.91;100445.94;5019777;28;4466;-87
2023/03/19 07:04:15;;;;;;;;;;;;;;;5.28;60.87;100428.88;5015845;28;4675;-88
2023/03/19 07:06:41;;;;;;;;;;;;;;;5.32;60.82;100428.28;5005449;28;5095;-88
2023/03/19 07:09:08;;;;;;;;;;;;;;;5.30;60.73;100450.88;5005369;28;4928;-87
2023/03/19 07:11:35;;;;;;;;;;;;;;;5.26;60.86;100455.75;5019074;28;4740;-88
2023/03/19 07:14:01;;;;;;;;;;;;;;;5.34;60.81;100447.63;4999993;28;4408;-86
2023/03/19 07:16:28;;;;;;;;;;;;;;;5.40;60.55;100446.88;5000547;28;4921;-87
2023/03/19 07:18:55;;;;;;;;;;;;;;;5.38;60.67;100456.09;4996042;28;5064;-87
2023/03/19 07:21:21;;;;;;;;;;;;;;;5.38;60.54;100454.28;5017726;28;4681;-86
2023/03/19 07:23:49;;;;;;;;;;;;;;;5.33;60.76;100456.69;5017424;28;4799;-88
2023/03/19 07:26:16;;;;;;;;;;;;;;;5.33;60.84;100455.84;5014434;28;4267;-88
2023/03/19 07:28:42;;;;;;;;;;;;;;;5.39;60.64;100449.75;5012913;28;4913;-87
2023/03/19 07:31:09;;;;;;;;;;;;;;;5.44;60.32;100456.19;5008790;28;4723;-88
2023/03/19 07:33:36;;;;;;;;;;;;;;;5.47;60.23;100455.81;5017220;28;4810;-88
2023/03/19 07:36:02;;;;;;;;;;;;;;;5.55;60.25;100459.38;5016553;28;4765;-87
2023/03/19 07:38:29;;;;;;;;;;;;;;;5.43;60.54;100459.03;5012850;28;4838;-87
2023/03/19 07:40:56;;;;;;;;;;;;;;;5.49;60.31;100460.94;5015525;28;4900;-88
2023/03/19 07:43:23;;;;;;;;;;;;;;;5.53;60.34;100467.59;4999501;28;4956;-87
2023/03/19 07:45:49;;;;;;;;;;;;;;;5.41;60.70;100469.94;5015193;28;4980;-87
2023/03/19 07:48:16;;;;;;;;;;;;;;;5.58;60.18;100470.50;5016322;28;4764;-87
2023/03/19 07:50:42;;;;;;;;;;;;;;;5.50;60.49;100470.66;5010796;28;4170;-87
2023/03/19 07:53:10;;;;;;;;;;;;;;;5.56;60.34;100472.56;5012190;28;4962;-86
2023/03/19 07:55:37;;;;;;;;;;;;;;;5.64;59.86;100467.06;5014003;28;4988;-87
2023/03/19 07:58:03;;;;;;;;;;;;;;;5.52;60.27;100473.94;5003964;28;5034;-86
2023/03/19 08:00:30;;;;;;;;;;;;;;;5.58;60.20;100467.00;5002533;28;4676;-86
2023/03/19 08:02:57;;;;;;;;;;;;;;;5.57;60.10;100474.19;5003892;28;4847;-87
2023/03/19 08:05:23;;;;;;;;;;;;;;;5.52;60.32;100468.59;5008512;28;4743;-85
2023/03/19 08:07:50;;;;;;;;;;;;;;;5.63;60.18;100470.78;4991040;28;4832;-86
2023/03/19 08:10:17;;;;;;;;;;;;;;;5.64;60.06;100467.06;4994015;28;4875;-87
2023/03/19 08:12:43;;;;;;;;;;;;;;;5.45;60.75;100467.69;4991755;28;5070;-87
2023/03/19 08:15:10;;;;;;;;;;;;;;;5.48;60.70;100470.00;5008142;28;4585;-87
2023/03/19 08:17:37;;;;;;;;;;;;;;;5.51;60.39;100480.31;5009237;28;4053;-87
2023/03/19 08:20:04;;;;;;;;;;;;;;;5.41;60.63;100472.59;5017002;28;5080;-88
2023/03/19 08:22:31;;;;;;;;;;;;;;;5.50;60.63;100484.00;5018117;28;4617;-87
2023/03/19 08:24:57;;;;;;;;;;;;;;;5.51;60.47;100487.50;5017019;28;4280;-87
2023/03/19 08:27:24;;;;;;;;;;;;;;;5.57;60.27;100487.56;5015900;28;5148;-87
2023/03/19 08:29:50;;;;;;;;;;;;;;;5.56;60.33;100490.41;5014426;28;4772;-86
2023/03/19 08:32:17;;;;;;;;;;;;;;;5.63;60.21;100491.31;4993564;28;4075;-86
2023/03/19 08:34:43;;;;;;;;;;;;;;;5.67;60.22;100490.75;4997257;28;4885;-86
2023/03/19 08:37:10;;;;;;;;;;;;;;;5.64;60.37;100495.63;5008750;28;4466;-86
2023/03/19 08:39:36;;;;;;;;;;;;;;;4.24;74.39;100500.91;4994229;28;4594;-87
2023/03/19 08:42:03;;;;;;;;;;;;;;;5.05;68.08;100493.91;5005034;28;4960;-87
2023/03/19 08:44:30;;;;;;;;;;;;;;;5.36;65.94;100492.88;5006185;28;4669;-86
2023/03/19 08:46:56;;;;;;;;;;;;;;;5.41;64.92;100491.28;5004722;28;4009;-86
2023/03/19 08:49:23;;;;;;;;;;;;;;;5.52;64.22;100497.16;4989931;28;3551;-87
2023/03/19 08:51:50;;;;;;;;;;;;;;;5.55;63.35;100486.91;5004655;28;4098;-86
2023/03/19 08:54:17;;;;;;;;;;;;;;;5.57;62.91;100481.41;5002698;28;4969;-87
2023/03/19 08:56:43;;;;;;;;;;;;;;;5.65;62.54;100483.97;5004968;28;3996;-88
2023/03/19 08:59:10;;;;;;;;;;;;;;;5.54;62.67;100487.13;5013671;28;4634;-87
2023/03/19 09:01:37;;;;;;;;;;;;;;;5.64;62.07;100483.09;5018966;28;4906;-88
2023/03/19 09:04:03;;;;;;;;;;;;;;;5.64;62.12;100479.63;5021463;28;4860;-88
2023/03/19 09:06:30;;;;;;;;;;;;;;;5.58;62.07;100481.19;5004022;28;4929;-87
2023/03/19 09:08:56;;;;;;;;;;;;;;;5.69;61.77;100477.22;5022778;28;4748;-87
2023/03/19 09:11:23;;;;;;;;;;;;;;;5.61;61.83;100470.13;5008402;28;4997;-86
2023/03/19 09:13:50;;;;;;;;;;;;;;;5.70;61.61;100465.50;5021197;28;4834;-86
2023/03/19 09:16:17;;;;;;;;;;;;;;;5.64;61.55;100464.41;5003338;28;5013;-86
2023/03/19 09:18:44;;;;;;;;;;;;;;;5.68;61.48;100467.53;5021542;28;4842;-87
2023/03/19 09:21:11;;;;;;;;;;;;;;;5.66;61.59;100461.56;5006904;28;4994;-87
2023/03/19 09:23:37;;;;;;;;;;;;;;;5.78;61.08;100459.22;5021971;28;4880;-86
2023/03/19 09:26:04;;;;;;;;;;;;;;;5.73;60.88;100445.59;5019226;28;4514;-86
2023/03/19 09:28:31;;;;;;;;;;;;;;;5.63;61.43;100454.75;5023307;28;4933;-86
2023/03/19 09:30:57;;;;;;;;;;;;;;;5.73;61.09;100457.09;4989962;28;4991;-84
2023/03/19 09:33:25;;;;;;;;;;;;;;;5.74;60.89;100444.59;5026501;28;4852;-85
2023/03/19 09:35:52;;;;;;;;;;;;;;;5.61;61.40;100451.41;5024408;28;4899;-87
2023/03/19 09:38:19;;;;;;;;;;;;;;;5.64;61.24;100459.06;5017271;28;5048;-86
2023/03/19 09:40:45;;;;;;;;;;;;;;;5.72;61.07;100452.78;5004866;28;4919;-86
2023/03/19 09:43:12;;;;;;;;;;;;;;;5.71;61.11;100456.47;5009003;28;4946;-85
2023/03/19 09:45:39;;;;;;;;;;;;;;;5.64;61.32;100442.19;5025518;28;4986;-85
2023/03/19 09:48:06;;;;;;;;;;;;;;;5.64;61.13;100443.03;5023033;28;4600;-86
2023/03/19 09:50:33;;;;;;;;;;;;;;;5.69;60.80;100437.13;5019178;28;5190;-86
2023/03/19 09:53:00;;;;;;;;;;;;;;;5.58;61.22;100443.78;5022701;28;5011;-85
2023/03/19 09:55:27;;;;;;;;;;;;;;;5.64;61.49;100442.19;5025031;28;4787;-86
2023/03/19 09:57:54;;;;;;;;;;;;;;;5.69;61.07;100437.13;5024621;28;4892;-85
2023/03/19 10:00:21;;;;;;;;;;;;;;;5.68;61.05;100444.31;5017424;28;4571;-86
2023/03/19 10:02:47;;;;;;;;;;;;;;;5.69;61.03;100437.13;5028899;28;4903;-84
2023/03/19 10:05:14;;;;;;;;;;;;;;;5.57;61.33;100436.81;5010153;28;3462;-86
2023/03/19 10:07:40;;;;;;;;;;;;;;;5.63;61.10;100444.06;5008136;28;4918;-85
2023/03/19 10:10:08;;;;;;;;;;;;;;;5.67;61.14;100433.81;5024779;28;4729;-86
2023/03/19 10:12:34;;;;;;;;;;;;;;;5.63;61.39;100437.88;5007182;28;4866;-86
2023/03/19 10:15:01;;;;;;;;;;;;;;;5.67;61.14;100441.81;5006641;28;5085;-86
2023/03/19 10:17:27;;;;;;;;;;;;;;;5.60;61.25;100452.44;5010596;28;4886;-86
2023/03/19 10:19:54;;;;;;;;;;;;;;;5.66;61.47;100456.22;5025240;28;4679;-86
2023/03/19 10:22:21;;;;;;;;;;;;;;;5.61;61.37;100459.44;5025872;28;3954;-86
2023/03/19 10:24:47;;;;;;;;;;;;;;;5.59;61.38;100460.63;5005117;28;5234;-87
2023/03/19 10:27:14;;;;;;;;;;;;;;;5.61;61.18;100461.28;5019558;28;4725;-87
2023/03/19 10:29:41;;;;;;;;;;;;;;;5.60;61.36;100464.97;5007186;28;4921;-86
2023/03/19 10:32:08;;;;;;;;;;;;;;;5.59;61.43;100461.50;5008985;28;4873;-87
2023/03/19 10:34:36;;;;;;;;;;;;;;;5.62;61.28;100461.13;5014112;28;4301;-86
2023/03/19 10:37:02;;;;;;;;;;;;;;;5.66;61.16;100461.56;5017528;28;4735;-87
2023/03/19 10:39:29;;;;;;;;;;;;;;;5.65;61.32;100460.72;5023038;28;4629;-86
2023/03/19 10:41:56;;;;;;;;;;;;;;;5.68;61.13;100463.03;5021425;28;4064;-85
2023/03/19 10:44:23;;;;;;;;;;;;;;;5.66;61.28;100457.03;5024828;28;4996;-87
2023/03/19 10:46:49;;;;;;;;;;;;;;;5.61;61.43;100455.94;5019327;28;4027;-86
2023/03/19 10:49:16;;;;;;;;;;;;;;;5.64;61.45;100460.91;5023649;28;4880;-85
2023/03/19 10:51:43;;;;;;;;;;;;;;;5.61;61.35;100451.41;5019849;28;5006;-85
2023/03/19 10:54:09;;;;;;;;;;;;;;;5.67;61.30;100455.19;5010075;28;4722;-86
2023/03/19 10:56:36;;;;;;;;;;;;;;;5.62;61.34;100454.94;5022602;28;4952;-85
2023/03/19 10:59:02;;;;;;;;;;;;;;;5.59;61.59;100447.28;5002519;28;4990;-84
2023/03/19 11:01:29;;;;;;;;;;;;;;;5.61;61.45;100442.59;5022104;28;4734;-87
2023/03/19 11:03:56;;;;;;;;;;;;;;;5.65;61.29;100443.88;5021885;28;5110;-84
2023/03/19 11:06:22;;;;;;;;;;;;;;;5.66;61.29;100442.84;5020133;28;4855;-85
2023/03/19 11:08:49;;;;;;;;;;;;;;;5.64;61.24;100440.34;5028325;28;5050;-85
2023/03/19 11:11:16;;;;;;;;;;;;;;;5.61;61.42;100446.06;5011276;28;4807;-86
2023/03/19 11:13:42;;;;;;;;;;;;;;;5.64;61.36;100440.34;5021278;28;4654;-85
2023/03/19 11:16:09;;;;;;;;;;;;;;;5.61;61.62;100439.91;5002479;28;5010;-84
2023/03/19 11:18:36;;;;;;;;;;;;;;;5.61;61.67;100437.25;5020047;28;4823;-85
2023/03/19 11:21:03;;;;;;;;;;;;;;;5.66;61.47;100437.50;5012365;28;4740;-84
2023/03/19 11:23:30;;;;;;;;;;;;;;;5.65;61.33;100438.53;5022147;28;4854;-84
2023/03/19 11:25:57;;;;;;;;;;;;;;;5.59;61.63;100442.78;5001071;28;4942;-85
2023/03/19 11:28:25;;;;;;;;;;;;;;;5.58;61.61;100442.97;5003125;28;4922;-85
2023/03/19 11:30:52;;;;;;;;;;;;;;;5.67;61.36;100428.47;5020811;28;4924;-85
2023/03/19 11:33:18;;;;;;;;;;;;;;;5.63;61.65;100428.03;5015368;28;4658;-84
2023/03/19 11:35:45;;;;;;;;;;;;;;;5.65;61.51;100428.66;5021689;28;4675;-84
2023/03/19 11:38:12;;;;;;;;;;;;;;;5.69;61.15;100429.09;5021150;28;4579;-85
2023/03/19 11:40:38;;;;;;;;;;;;;;;5.63;61.67;100433.38;5002453;28;4867;-85
2023/03/19 11:43:05;;;;;;;;;;;;;;;5.64;61.54;100435.00;5007845;28;4803;-86
2023/03/19 11:45:32;;;;;;;;;;;;;;;5.66;61.49;100432.16;5020633;28;4665;-86
2023/03/19 11:47:58;;;;;;;;;;;;;;;5.63;61.69;100438.72;5001674;28;4842;-87
2023/03/19 11:50:25;;;;;;;;;;;;;;;5.64;61.73;100440.34;5025426;28;4828;-87
2023/03/19 11:52:52;;;;;;;;;;;;;;;5.70;61.35;100433.41;5001394;28;4759;-86
2023/03/19 11:55:20;;;;;;;;;;;;;;;5.65;61.64;100430.53;5005692;28;4746;-86
2023/03/19 11:57:47;;;;;;;;;;;;;;;5.68;61.57;100428.28;5027980;28;5097;-86
2023/03/19 12:00:15;;;;;;;;;;;;;;;5.70;61.50;100420.06;5019575;28;4906;-87
2023/03/19 12:02:42;;;;;;;;;;;;;;;5.76;61.14;100427.31;5006915;28;4647;-87
2023/03/19 12:05:09;;;;;;;;;;;;;;;5.68;61.43;100422.94;5001300;28;4859;-85
2023/03/19 12:07:35;;;;;;;;;;;;;;;5.68;61.65;100430.97;5022263;28;4938;-85
2023/03/19 12:10:02;;;;;;;;;;;;;;;5.60;61.94;100423.06;5021401;28;4922;-87
2023/03/19 12:12:28;;;;;;;;;;;;;;;5.64;61.68;100423.50;5021030;28;4932;-89
2023/03/19 12:14:55;;;;;;;;;;;;;;;5.67;61.51;100420.44;5007876;28;5020;-88
2023/03/19 12:17:22;;;;;;;;;;;;;;;5.68;61.64;100420.28;5003198;28;4139;-88
2023/03/19 12:19:49;;;;;;;;;;;;;;;5.66;61.63;100424.16;5018314;28;4926;-88
2023/03/19 12:22:15;;;;;;;;;;;;;;;5.68;61.64;100414.09;5026502;28;4898;-86
2023/03/19 12:24:42;;;;;;;;;;;;;;;5.68;61.57;100412.25;5017345;28;4893;-87
2023/03/19 12:27:09;;;;;;;;;;;;;;;5.63;61.72;100408.50;5019614;28;4812;-87
2023/03/19 12:29:36;;;;;;;;;;;;;;;5.64;61.86;100405.63;5005042;28;4993;-87
2023/03/19 12:32:02;;;;;;;;;;;;;;;5.61;61.87;100403.31;5018395;28;4727;-87
2023/03/19 12:34:29;;;;;;;;;;;;;;;5.64;61.88;100402.13;5016216;28;4891;-85
2023/03/19 12:36:56;;;;;;;;;;;;;;;5.64;61.67;100391.44;5019863;28;4778;-85
2023/03/19 12:39:23;;;;;;;;;;;;;;;5.69;61.38;100381.00;5019404;28;4919;-87
2023/03/19 12:41:50;;;;;;;;;;;;;;;5.65;61.67;100377.06;5022959;28;4838;-86
2023/03/19 12:44:17;;;;;;;;;;;;;;;5.63;61.67;100376.44;5022189;28;4418;-85
2023/03/19 12:46:44;;;;;;;;;;;;;;;5.67;61.68;100367.00;5019275;28;3884;-86
2023/03/19 12:49:11;;;;;;;;;;;;;;;5.63;61.66;100363.91;5026147;28;4807;-85
2023/03/19 12:51:37;;;;;;;;;;;;;;;5.64;61.92;100362.03;5015959;28;4648;-86
2023/03/19 12:54:04;;;;;;;;;;;;;;;5.61;62.07;100362.44;4998251;28;3984;-86